createdAt,value
2018-12-16T00:02:29.031Z,27.13
2018-12-16T00:04:58.358Z,25.50
2018-12-16T00:07:27.663Z,29.20
2018-12-16T00:09:56.964Z,28.47
2018-12-16T00:12:26.248Z,29.90
2018-12-16T00:14:55.522Z,28.47
2018-12-16T00:17:24.850Z,29.33
2018-12-16T00:19:54.209Z,29.77
2018-12-16T00:22:29.715Z,29.53
2018-12-16T00:24:55.702Z,30.07
2018-12-16T00:27:24.977Z,31.20
2018-12-16T00:29:54.288Z,30.27
2018-12-16T00:32:23.563Z,28.90
2018-12-16T00:34:52.934Z,29.23
2018-12-16T00:37:22.181Z,33.60
2018-12-16T00:39:51.433Z,32.23
2018-12-16T00:42:20.725Z,29.90
2018-12-16T00:44:49.995Z,33.13
2018-12-16T00:47:19.310Z,32.57
2018-12-16T00:49:48.612Z,32.20
2018-12-16T00:52:17.882Z,28.53
2018-12-16T00:54:47.129Z,31.13
2018-12-16T00:59:37.848Z,31.83
2018-12-16T01:02:11.539Z,29.33
2018-12-16T01:04:40.828Z,31.10
2018-12-16T01:07:10.150Z,32.10
2018-12-16T01:09:39.432Z,27.50
2018-12-16T01:12:08.726Z,30.23
2018-12-16T01:14:38.015Z,32.30
2018-12-16T01:17:07.374Z,31.03
2018-12-16T01:19:36.568Z,30.17
2018-12-16T01:22:05.849Z,28.60
2018-12-16T01:24:35.194Z,31.97
2018-12-16T01:27:04.435Z,29.87
2018-12-16T01:29:33.676Z,29.03
2018-12-16T01:32:03.008Z,28.47
2018-12-16T01:34:32.420Z,28.23
2018-12-16T01:37:01.699Z,29.00
2018-12-16T01:39:31.014Z,29.97
2018-12-16T01:42:00.376Z,27.27
2018-12-16T01:44:29.650Z,26.60
2018-12-16T01:46:58.946Z,30.13
2018-12-16T01:49:28.304Z,28.17
2018-12-16T01:51:57.547Z,29.97
2018-12-16T01:54:26.871Z,30.60
2018-12-16T01:56:56.152Z,27.87
2018-12-16T01:59:25.366Z,27.37
2018-12-16T02:01:55.591Z,24.83
2018-12-16T02:04:25.335Z,26.47
2018-12-16T02:06:54.661Z,26.80
2018-12-16T02:09:24.383Z,26.00
2018-12-16T02:11:53.698Z,26.77
2018-12-16T02:14:23.063Z,24.10
2018-12-16T02:16:52.269Z,28.67
2018-12-16T02:19:21.623Z,24.17
2018-12-16T02:21:50.885Z,23.33
2018-12-16T02:24:20.146Z,25.10
2018-12-16T02:26:49.438Z,24.53
2018-12-16T02:29:18.736Z,23.93
2018-12-16T02:31:48.041Z,25.40
2018-12-16T02:34:17.543Z,26.77
2018-12-16T02:36:46.848Z,25.97
2018-12-16T02:39:16.168Z,24.63
2018-12-16T02:41:45.428Z,25.23
2018-12-16T02:44:14.672Z,24.57
2018-12-16T02:46:43.949Z,24.23
2018-12-16T02:49:13.251Z,22.20
2018-12-16T02:51:42.535Z,25.33
2018-12-16T02:54:11.798Z,23.93
2018-12-16T02:56:41.023Z,21.90
2018-12-16T02:59:10.279Z,23.33
2018-12-16T03:01:41.668Z,25.57
2018-12-16T03:04:10.929Z,23.33
2018-12-16T03:06:40.305Z,24.33
2018-12-16T03:09:09.560Z,21.50
2018-12-16T03:11:38.782Z,22.27
2018-12-16T03:14:08.040Z,24.47
2018-12-16T03:16:37.352Z,19.43
2018-12-16T03:19:06.651Z,24.67
2018-12-16T03:21:35.897Z,25.37
2018-12-16T03:24:05.145Z,25.67
2018-12-16T03:26:36.096Z,25.57
2018-12-16T03:29:05.841Z,24.40
2018-12-16T03:31:35.147Z,24.27
2018-12-16T03:34:04.360Z,25.73
2018-12-16T03:36:33.652Z,24.40
2018-12-16T03:39:04.568Z,25.37
2018-12-16T03:41:34.194Z,28.07
2018-12-16T03:44:03.598Z,25.03
2018-12-16T03:46:32.860Z,25.43
2018-12-16T03:49:02.203Z,26.83
2018-12-16T03:51:31.501Z,25.83
2018-12-16T03:54:00.792Z,27.00
2018-12-16T03:56:30.107Z,28.30
2018-12-16T03:59:10.360Z,30.27
2018-12-16T04:01:39.599Z,29.57
2018-12-16T04:04:08.894Z,30.43
2018-12-16T04:06:38.112Z,30.13
2018-12-16T04:09:07.606Z,30.70
2018-12-16T04:11:36.952Z,30.67
2018-12-16T04:14:06.220Z,34.07
2018-12-16T04:16:35.608Z,31.23
2018-12-16T04:19:04.844Z,30.00
2018-12-16T04:21:34.175Z,32.40
2018-12-16T04:24:03.487Z,31.00
2018-12-16T04:26:32.766Z,33.37
2018-12-16T04:29:02.370Z,30.07
2018-12-16T04:31:31.749Z,34.20
2018-12-16T04:34:01.030Z,30.40
2018-12-16T04:36:30.265Z,30.47
2018-12-16T04:38:59.593Z,32.10
2018-12-16T04:41:28.820Z,30.17
2018-12-16T04:43:58.237Z,29.67
2018-12-16T04:46:27.655Z,34.63
2018-12-16T04:48:56.871Z,28.97
2018-12-16T04:51:26.184Z,30.37
2018-12-16T04:53:55.509Z,29.17
2018-12-16T04:56:24.753Z,32.20
2018-12-16T04:59:00.682Z,31.03
2018-12-16T05:01:29.995Z,31.53
2018-12-16T05:03:59.263Z,29.00
2018-12-16T05:06:28.616Z,30.17
2018-12-16T05:08:57.854Z,32.67
2018-12-16T05:11:27.067Z,34.43
2018-12-16T05:13:56.386Z,33.33
2018-12-16T05:16:25.679Z,31.93
2018-12-16T05:18:55.009Z,33.30
2018-12-16T05:21:24.329Z,28.77
2018-12-16T05:23:53.590Z,29.13
2018-12-16T05:26:22.763Z,32.00
2018-12-16T05:28:52.012Z,29.87
2018-12-16T05:31:21.246Z,28.27
2018-12-16T05:33:50.499Z,28.20
2018-12-16T05:36:19.775Z,25.37
2018-12-16T05:38:49.763Z,24.73
2018-12-16T05:41:19.131Z,27.57
2018-12-16T05:43:48.339Z,29.27
2018-12-16T05:46:17.570Z,28.90
2018-12-16T05:48:46.863Z,38.27
2018-12-16T05:51:16.177Z,36.77
2018-12-16T05:53:48.536Z,34.83
2018-12-16T05:56:16.910Z,33.63
2018-12-16T05:58:46.193Z,36.17
2018-12-16T06:01:15.492Z,39.13
2018-12-16T06:03:44.736Z,37.07
2018-12-16T06:06:14.026Z,35.07
2018-12-16T06:08:43.282Z,35.10
2018-12-16T06:11:12.500Z,35.63
2018-12-16T06:13:41.702Z,37.50
2018-12-16T06:16:11.008Z,35.13
2018-12-16T06:18:40.263Z,33.37
2018-12-16T06:21:09.552Z,38.50
2018-12-16T06:23:38.879Z,38.53
2018-12-16T06:26:08.195Z,38.23
2018-12-16T06:28:37.493Z,33.73
2018-12-16T06:31:06.800Z,37.30
2018-12-16T06:33:36.035Z,38.70
2018-12-16T06:36:05.300Z,39.57
2018-12-16T06:38:34.555Z,36.33
2018-12-16T06:41:03.813Z,38.37
2018-12-16T06:43:33.125Z,39.63
2018-12-16T06:46:02.443Z,40.60
2018-12-16T06:48:31.682Z,39.00
2018-12-16T06:51:01.028Z,39.63
2018-12-16T06:53:30.225Z,37.50
2018-12-16T06:56:06.753Z,38.60
2018-12-16T06:58:36.495Z,40.20
2018-12-16T07:01:05.760Z,40.47
2018-12-16T07:03:34.937Z,40.40
2018-12-16T07:06:04.213Z,37.30
2018-12-16T07:08:33.495Z,41.47
2018-12-16T07:11:02.743Z,38.87
2018-12-16T07:13:32.031Z,36.83
2018-12-16T07:16:01.456Z,44.60
2018-12-16T07:18:30.893Z,43.50
2018-12-16T07:21:00.215Z,45.13
2018-12-16T07:23:29.515Z,41.43
2018-12-16T07:25:58.825Z,40.60
2018-12-16T07:28:28.283Z,37.70
2018-12-16T07:30:57.518Z,43.60
2018-12-16T07:33:26.792Z,40.80
2018-12-16T07:35:56.157Z,43.60
2018-12-16T07:38:25.432Z,42.37
2018-12-16T07:40:54.728Z,41.73
2018-12-16T07:43:24.051Z,36.40
2018-12-16T07:45:53.322Z,40.00
2018-12-16T07:48:22.846Z,36.17
2018-12-16T07:50:52.246Z,38.93
2018-12-16T07:53:21.527Z,33.00
2018-12-16T07:55:50.802Z,37.10
2018-12-16T07:58:20.127Z,40.17
2018-12-16T08:00:49.384Z,40.97
2018-12-16T08:03:18.678Z,38.67
2018-12-16T08:05:47.991Z,41.43
2018-12-16T08:08:17.399Z,35.87
2018-12-16T08:10:46.667Z,36.97
2018-12-16T08:13:15.951Z,35.13
2018-12-16T08:15:45.205Z,37.97
2018-12-16T08:18:14.434Z,35.97
2018-12-16T08:20:43.695Z,33.67
2018-12-16T08:23:14.100Z,35.77
2018-12-16T08:25:43.328Z,36.50
2018-12-16T08:28:12.613Z,34.17
2018-12-16T08:30:42.006Z,33.23
2018-12-16T08:33:11.264Z,36.37
2018-12-16T08:35:40.552Z,35.50
2018-12-16T08:38:09.861Z,35.47
2018-12-16T08:40:39.329Z,36.90
2018-12-16T08:43:08.870Z,39.03
2018-12-16T08:45:38.192Z,33.13
2018-12-16T08:48:07.499Z,36.43
2018-12-16T08:50:36.883Z,33.20
2018-12-16T08:53:06.186Z,34.73
2018-12-16T08:55:35.482Z,36.17
2018-12-16T08:58:04.811Z,33.03
2018-12-16T09:00:34.072Z,37.30
2018-12-16T09:03:03.276Z,40.07
2018-12-16T09:05:32.534Z,42.57
2018-12-16T09:08:01.803Z,51.33
2018-12-16T09:10:34.280Z,52.93
2018-12-16T09:13:02.699Z,47.53
2018-12-16T09:15:31.928Z,47.23
2018-12-16T09:18:01.280Z,55.87
2018-12-16T09:20:30.618Z,53.20
2018-12-16T09:22:59.857Z,50.37
2018-12-16T09:25:29.244Z,47.30
2018-12-16T09:27:58.495Z,69.40
2018-12-16T09:30:27.745Z,48.33
2018-12-16T09:32:56.954Z,44.07
2018-12-16T09:35:26.188Z,43.00
2018-12-16T09:37:55.478Z,44.70
2018-12-16T09:40:24.718Z,44.60
2018-12-16T09:42:54.086Z,45.60
2018-12-16T09:45:23.412Z,51.97
2018-12-16T09:47:52.878Z,54.73
2018-12-16T09:50:22.143Z,50.80
2018-12-16T09:52:51.585Z,49.20
2018-12-16T09:55:20.940Z,42.57
2018-12-16T09:57:50.252Z,43.43
2018-12-16T10:00:19.649Z,46.97
2018-12-16T10:02:55.307Z,46.17
2018-12-16T10:05:24.595Z,41.77
2018-12-16T10:07:53.866Z,51.37
2018-12-16T10:10:23.171Z,48.13
2018-12-16T10:12:52.583Z,45.40
2018-12-16T10:15:21.824Z,48.97
2018-12-16T10:17:51.144Z,50.10
2018-12-16T10:20:20.479Z,47.23
2018-12-16T10:22:49.768Z,44.13
2018-12-16T10:25:19.055Z,37.97
2018-12-16T10:27:48.328Z,42.47
2018-12-16T10:30:17.602Z,42.70
2018-12-16T10:32:46.859Z,42.10
2018-12-16T10:35:16.143Z,44.90
2018-12-16T10:37:45.348Z,44.23
2018-12-16T10:40:14.671Z,46.13
2018-12-16T10:42:43.943Z,39.40
2018-12-16T10:45:13.234Z,41.80
2018-12-16T10:47:42.834Z,41.20
2018-12-16T10:50:12.320Z,38.63
2018-12-16T10:52:41.616Z,38.27
2018-12-16T10:55:10.999Z,46.07
2018-12-16T10:57:40.239Z,42.27
2018-12-16T11:00:16.592Z,42.87
2018-12-16T11:02:45.984Z,39.40
2018-12-16T11:05:15.639Z,42.37
2018-12-16T11:07:44.985Z,41.73
2018-12-16T11:10:14.321Z,44.67
2018-12-16T11:12:43.999Z,43.83
2018-12-16T11:15:13.413Z,44.70
2018-12-16T11:17:42.711Z,42.70
2018-12-16T11:20:12.020Z,41.30
2018-12-16T11:22:41.299Z,41.73
2018-12-16T11:25:13.228Z,44.60
2018-12-16T11:27:42.507Z,49.40
2018-12-16T11:30:12.480Z,41.70
2018-12-16T11:32:41.784Z,41.03
2018-12-16T11:35:11.028Z,42.43
2018-12-16T11:37:40.306Z,40.77
2018-12-16T11:40:09.839Z,48.83
2018-12-16T11:42:39.027Z,42.63
2018-12-16T11:45:08.431Z,47.60
2018-12-16T11:47:37.704Z,40.80
2018-12-16T11:50:07.118Z,39.93
2018-12-16T11:52:36.348Z,41.13
2018-12-16T11:55:12.505Z,41.73
2018-12-16T11:57:37.160Z,42.73
2018-12-16T12:00:07.244Z,42.67
2018-12-16T12:02:36.570Z,41.10
2018-12-16T12:05:05.968Z,39.97
2018-12-16T12:07:35.335Z,42.73
2018-12-16T12:10:05.943Z,38.93
2018-12-16T12:12:35.169Z,37.80
2018-12-16T12:15:04.647Z,40.70
2018-12-16T12:17:33.904Z,41.97
2018-12-16T12:20:03.259Z,41.77
2018-12-16T12:22:32.473Z,42.83
2018-12-16T12:25:01.714Z,39.53
2018-12-16T12:27:30.944Z,40.33
2018-12-16T12:30:00.231Z,39.77
2018-12-16T12:32:29.479Z,38.73
2018-12-16T12:34:58.727Z,38.53
2018-12-16T12:37:28.007Z,38.13
2018-12-16T12:39:57.306Z,46.37
2018-12-16T12:42:26.508Z,40.20
2018-12-16T12:44:55.830Z,46.20
2018-12-16T12:47:25.133Z,46.80
2018-12-16T12:49:54.371Z,50.03
2018-12-16T12:52:23.607Z,39.90
2018-12-16T12:54:52.854Z,44.47
2018-12-16T12:57:22.087Z,46.50
2018-12-16T12:59:51.390Z,48.27
2018-12-16T13:02:20.662Z,38.97
2018-12-16T13:04:49.962Z,36.77
2018-12-16T13:07:19.262Z,46.67
2018-12-16T13:09:48.462Z,43.60
2018-12-16T13:12:17.675Z,40.53
2018-12-16T13:14:47.016Z,41.83
2018-12-16T13:17:16.356Z,41.50
2018-12-16T13:19:46.948Z,45.93
2018-12-16T13:22:16.239Z,44.43
2018-12-16T13:26:54.611Z,50.53
2018-12-16T13:29:24.118Z,48.53
2018-12-16T13:31:53.415Z,46.53
2018-12-16T13:34:22.790Z,45.07
2018-12-16T13:36:52.056Z,45.27
2018-12-16T13:39:21.854Z,41.27
2018-12-16T13:41:52.567Z,44.57
2018-12-16T13:44:22.175Z,47.03
2018-12-16T13:46:51.533Z,41.13
2018-12-16T13:49:27.376Z,41.63
2018-12-16T13:51:56.670Z,43.80
2018-12-16T13:54:25.953Z,45.87
2018-12-16T13:56:55.280Z,48.87
2018-12-16T13:59:24.539Z,41.40
2018-12-16T14:01:53.864Z,45.27
2018-12-16T14:04:23.091Z,43.60
2018-12-16T14:06:52.415Z,48.50
2018-12-16T14:09:21.738Z,45.20
2018-12-16T14:11:51.136Z,40.50
2018-12-16T14:14:20.376Z,48.13
2018-12-16T14:16:49.663Z,40.40
2018-12-16T14:19:18.926Z,40.23
2018-12-16T14:21:48.169Z,43.80
2018-12-16T14:24:17.533Z,40.03
2018-12-16T14:26:46.872Z,43.10
2018-12-16T14:29:16.095Z,43.97
2018-12-16T14:31:45.457Z,49.77
2018-12-16T14:34:14.736Z,43.23
2018-12-16T14:36:44.043Z,40.80
2018-12-16T14:39:13.296Z,43.93
2018-12-16T14:41:42.484Z,37.67
2018-12-16T14:44:11.763Z,38.50
2018-12-16T14:46:41.142Z,41.93
2018-12-16T14:49:10.497Z,39.93
2018-12-16T14:51:39.848Z,47.90
2018-12-16T14:54:09.112Z,43.30
2018-12-16T14:56:38.564Z,40.47
2018-12-16T14:59:07.807Z,42.93
2018-12-16T15:01:37.099Z,39.03
2018-12-16T15:04:06.368Z,36.90
2018-12-16T15:06:35.779Z,38.47
2018-12-16T15:09:07.054Z,40.47
2018-12-16T15:11:36.454Z,44.90
2018-12-16T15:14:05.752Z,42.43
2018-12-16T15:16:35.035Z,47.47
2018-12-16T15:19:04.512Z,46.47
2018-12-16T15:21:33.767Z,45.87
2018-12-16T15:24:02.992Z,42.57
2018-12-16T15:26:32.286Z,42.83
2018-12-16T15:29:01.580Z,47.73
2018-12-16T15:31:30.836Z,67.43
2018-12-16T15:34:00.229Z,46.90
2018-12-16T15:36:29.571Z,43.40
2018-12-16T15:38:58.823Z,43.20
2018-12-16T15:41:28.072Z,39.70
2018-12-16T15:43:57.421Z,42.93
2018-12-16T15:46:26.678Z,55.70
2018-12-16T15:48:55.965Z,57.57
2018-12-16T15:51:25.269Z,56.50
2018-12-16T15:53:54.687Z,43.63
2018-12-16T15:56:23.979Z,48.43
2018-12-16T15:58:53.208Z,46.47
2018-12-16T16:01:22.504Z,41.73
2018-12-16T16:03:51.761Z,40.87
2018-12-16T16:06:21.016Z,39.80
2018-12-16T16:08:50.380Z,43.37
2018-12-16T16:11:19.599Z,39.67
2018-12-16T16:13:48.818Z,39.20
2018-12-16T16:16:18.119Z,41.97
2018-12-16T16:18:47.407Z,40.97
2018-12-16T16:21:16.615Z,39.43
2018-12-16T16:23:45.843Z,45.73
2018-12-16T16:26:16.382Z,48.97
2018-12-16T16:28:45.995Z,42.20
2018-12-16T16:31:15.324Z,40.90
2018-12-16T16:33:44.595Z,38.87
2018-12-16T16:36:13.817Z,41.13
2018-12-16T16:38:43.059Z,45.50
2018-12-16T16:41:12.393Z,41.60
2018-12-16T16:43:41.699Z,47.30
2018-12-16T16:46:11.007Z,48.30
2018-12-16T16:48:40.379Z,47.10
2018-12-16T16:51:09.659Z,42.83
2018-12-16T16:53:45.380Z,46.60
2018-12-16T16:56:14.688Z,47.47
2018-12-16T16:58:44.052Z,45.03
2018-12-16T17:01:14.718Z,50.63
2018-12-16T17:03:44.314Z,46.77
2018-12-16T17:06:13.624Z,46.33
2018-12-16T17:08:42.963Z,42.60
2018-12-16T17:11:12.362Z,49.93
2018-12-16T17:13:41.695Z,45.77
2018-12-16T17:16:11.147Z,48.97
2018-12-16T17:18:40.442Z,43.43
2018-12-16T17:21:09.784Z,46.10
2018-12-16T17:23:39.137Z,42.70
2018-12-16T17:26:08.457Z,47.50
2018-12-16T17:28:37.731Z,46.27
2018-12-16T17:31:06.948Z,46.57
2018-12-16T17:33:36.256Z,48.80
2018-12-16T17:36:05.519Z,51.40
2018-12-16T17:38:34.846Z,47.97
2018-12-16T17:41:04.187Z,49.67
2018-12-16T17:43:33.474Z,50.70
2018-12-16T17:46:02.769Z,47.93
2018-12-16T17:48:32.035Z,48.17
2018-12-16T17:51:01.328Z,46.67
2018-12-16T17:53:30.611Z,50.47
2018-12-16T17:56:00.135Z,45.87
2018-12-16T17:58:29.572Z,50.90
2018-12-16T18:00:58.835Z,47.57
2018-12-16T18:03:28.096Z,53.07
2018-12-16T18:05:57.401Z,56.97
2018-12-16T18:08:26.711Z,57.43
2018-12-16T18:10:55.961Z,55.73
2018-12-16T18:13:25.241Z,56.60
2018-12-16T18:15:54.535Z,55.17
2018-12-16T18:18:23.846Z,57.63
2018-12-16T18:20:53.175Z,55.47
2018-12-16T18:23:29.463Z,58.40
2018-12-16T18:25:53.943Z,61.47
2018-12-16T18:28:23.239Z,60.17
2018-12-16T18:30:52.548Z,56.90
2018-12-16T18:33:21.954Z,50.33
2018-12-16T18:35:51.271Z,53.60
2018-12-16T18:38:20.580Z,56.53
2018-12-16T18:40:49.827Z,54.73
2018-12-16T18:43:19.121Z,54.17
2018-12-16T18:45:48.344Z,52.73
2018-12-16T18:48:17.590Z,61.20
2018-12-16T18:50:46.838Z,60.37
2018-12-16T18:53:16.113Z,56.40
2018-12-16T18:55:45.382Z,55.67
2018-12-16T18:58:14.711Z,59.67
2018-12-16T19:00:47.055Z,51.83
2018-12-16T19:03:16.875Z,53.70
2018-12-16T19:06:14.581Z,55.80
2018-12-16T19:08:43.848Z,63.47
2018-12-16T19:11:24.604Z,56.63
2018-12-16T19:13:54.714Z,61.67
2018-12-16T19:16:29.704Z,62.43
2018-12-16T19:19:06.989Z,58.27
2018-12-16T19:21:44.948Z,58.17
2018-12-16T19:24:34.729Z,53.50
2018-12-16T19:36:12.374Z,63.17
2018-12-16T19:39:14.444Z,58.57
2018-12-16T19:41:44.336Z,55.50
2018-12-16T19:44:14.351Z,59.00
2018-12-16T19:46:44.201Z,54.57
2018-12-16T19:49:14.146Z,54.87
2018-12-16T19:51:43.997Z,56.43
2018-12-16T19:54:13.898Z,53.80
2018-12-16T19:56:44.025Z,54.27
2018-12-16T19:59:13.897Z,58.67
2018-12-16T20:01:44.099Z,61.37
2018-12-16T20:04:19.887Z,68.93
2018-12-16T20:06:49.683Z,74.77
2018-12-16T20:09:19.451Z,76.00
2018-12-16T20:11:49.354Z,69.90
2018-12-16T20:14:19.818Z,66.90
2018-12-16T20:16:50.015Z,63.03
2018-12-16T20:19:20.102Z,64.53
2018-12-16T20:21:49.970Z,62.23
2018-12-16T20:24:19.833Z,68.93
2018-12-16T20:26:50.091Z,62.20
2018-12-16T20:29:21.104Z,59.43
2018-12-16T20:31:52.111Z,62.87
2018-12-16T20:34:22.759Z,60.13
2018-12-16T20:36:53.198Z,59.53
2018-12-16T20:39:23.819Z,58.10
2018-12-16T20:41:54.665Z,56.20
2018-12-16T20:44:25.802Z,57.37
2018-12-16T20:46:57.275Z,54.10
2018-12-16T20:49:28.040Z,57.70
2018-12-16T20:51:58.882Z,56.20
2018-12-16T20:54:30.273Z,57.37
2018-12-16T20:57:01.865Z,55.90
2018-12-16T20:59:33.470Z,57.30
2018-12-16T21:02:05.496Z,56.93
2018-12-16T21:04:36.821Z,54.37
2018-12-16T21:07:08.107Z,52.43
2018-12-16T21:09:38.910Z,55.17
2018-12-16T21:12:14.929Z,53.47
2018-12-16T21:14:50.980Z,53.60
2018-12-16T21:17:26.883Z,48.73
2018-12-16T21:19:57.479Z,47.37
2018-12-16T21:22:27.883Z,48.03
2018-12-16T21:24:57.985Z,46.93
2018-12-16T21:27:27.668Z,46.77
2018-12-16T21:29:56.962Z,43.93
2018-12-16T21:32:26.356Z,42.83
2018-12-16T21:34:55.628Z,44.23
2018-12-16T21:37:25.758Z,48.47
2018-12-16T21:39:55.786Z,47.90
2018-12-16T21:42:25.821Z,42.60
2018-12-16T21:44:56.042Z,45.80
2018-12-16T21:47:26.088Z,42.83
2018-12-16T21:49:55.980Z,47.03
2018-12-16T21:52:26.190Z,44.93
2018-12-16T21:54:56.095Z,45.47
2018-12-16T21:57:32.828Z,44.83
2018-12-16T21:59:59.002Z,46.80
2018-12-16T22:02:29.484Z,47.73
2018-12-16T22:04:59.539Z,40.43
2018-12-16T22:07:29.440Z,41.23
2018-12-16T22:09:59.626Z,38.23
2018-12-16T22:12:29.554Z,37.33
2018-12-16T22:14:59.532Z,39.67
2018-12-16T22:17:29.565Z,43.93
2018-12-16T22:19:59.376Z,39.20
2018-12-16T22:22:29.472Z,38.87
2018-12-16T22:24:59.712Z,37.70
2018-12-16T22:27:29.626Z,39.43
2018-12-16T22:29:59.739Z,35.67
2018-12-16T22:32:29.674Z,37.10
2018-12-16T22:34:59.822Z,43.80
2018-12-16T22:37:29.245Z,34.63
2018-12-16T22:39:58.523Z,37.10
2018-12-16T22:42:27.742Z,34.60
2018-12-16T22:44:57.020Z,36.30
2018-12-16T22:47:26.874Z,33.73
2018-12-16T22:49:56.790Z,34.93
2018-12-16T22:52:26.650Z,34.40
2018-12-16T22:54:56.583Z,34.47
2018-12-16T22:57:26.931Z,36.30
2018-12-16T22:59:57.467Z,33.73
2018-12-16T23:02:28.138Z,36.00
2018-12-16T23:04:58.303Z,33.17
2018-12-16T23:07:28.746Z,37.70
2018-12-16T23:09:58.636Z,34.57
2018-12-16T23:12:30.902Z,36.30
2018-12-16T23:15:01.015Z,39.37
2018-12-16T23:17:31.058Z,34.97
2018-12-16T23:20:06.416Z,36.30
2018-12-16T23:22:36.557Z,37.03
2018-12-16T23:25:06.321Z,40.67
2018-12-16T23:27:35.603Z,37.67
2018-12-16T23:30:05.374Z,34.80
2018-12-16T23:32:34.637Z,36.70
2018-12-16T23:35:04.079Z,38.37
2018-12-16T23:37:33.333Z,34.87
2018-12-16T23:40:02.634Z,32.50
2018-12-16T23:42:38.495Z,33.47
2018-12-16T23:45:09.258Z,40.37
2018-12-16T23:47:38.551Z,40.13
2018-12-16T23:50:08.075Z,37.57
2018-12-16T23:52:37.334Z,37.40
2018-12-16T23:55:06.770Z,37.10
2018-12-16T23:57:36.022Z,38.40
